createdAt,value
2023-11-29T00:02:56.884Z,97286.75
2023-11-29T00:05:46.201Z,97287.95
2023-11-29T00:08:33.715Z,97290.98
2023-11-29T00:11:22.724Z,97291.50
2023-11-29T00:14:11.108Z,97293.34
2023-11-29T00:17:01.964Z,97295.03
2023-11-29T00:19:52.883Z,97298.34
2023-11-29T00:22:40.270Z,97302.55
2023-11-29T00:25:27.551Z,97305.00
2023-11-29T00:28:14.703Z,97306.59
2023-11-29T00:31:02.581Z,97310.11
2023-11-29T00:33:49.627Z,97319.91
2023-11-29T00:36:36.615Z,97320.41
2023-11-29T00:39:23.520Z,97321.71
2023-11-29T00:42:10.676Z,97323.89
2023-11-29T00:44:57.555Z,97328.28
2023-11-29T00:47:44.399Z,97332.62
2023-11-29T00:50:31.528Z,97336.73
2023-11-29T00:53:18.611Z,97342.07
2023-11-29T00:56:06.393Z,97347.55
2023-11-29T00:58:53.200Z,97346.15
2023-11-29T01:01:41.583Z,97345.58
2023-11-29T01:04:28.772Z,97338.77
2023-11-29T01:07:16.286Z,97342.97
2023-11-29T01:10:03.442Z,97342.35
2023-11-29T01:12:50.518Z,97348.11
2023-11-29T01:15:41.514Z,97345.39
2023-11-29T01:18:29.387Z,97343.29
2023-11-29T01:21:25.789Z,97344.91
2023-11-29T01:24:19.846Z,97347.86
2023-11-29T01:27:06.555Z,97343.59
2023-11-29T01:29:53.570Z,97348.21
2023-11-29T01:32:40.896Z,97348.34
2023-11-29T01:35:28.238Z,97353.03
2023-11-29T01:38:15.100Z,97358.38
2023-11-29T01:41:06.571Z,97362.96
2023-11-29T01:43:54.268Z,97364.21
2023-11-29T01:46:42.359Z,97365.17
2023-11-29T01:49:31.557Z,97366.30
2023-11-29T01:52:18.791Z,97364.60
2023-11-29T01:55:07.327Z,97365.64
2023-11-29T01:57:56.018Z,97364.60
2023-11-29T02:00:43.330Z,97366.02
2023-11-29T02:03:30.457Z,97365.63
2023-11-29T02:06:17.879Z,97362.77
2023-11-29T02:09:05.366Z,97366.75
2023-11-29T02:11:53.847Z,97373.73
2023-11-29T02:14:43.792Z,97374.28
2023-11-29T02:17:30.606Z,97375.91
2023-11-29T02:20:19.744Z,97381.77
2023-11-29T02:23:20.589Z,97382.29
2023-11-29T02:26:07.779Z,97384.66
2023-11-29T02:28:55.239Z,97391.02
2023-11-29T02:31:42.627Z,97390.55
2023-11-29T02:34:30.344Z,97388.68
2023-11-29T02:37:17.044Z,97389.92
2023-11-29T02:40:04.743Z,97392.94
2023-11-29T02:42:52.072Z,97396.77
2023-11-29T02:45:38.979Z,97407.01
2023-11-29T02:48:26.304Z,97405.86
2023-11-29T02:51:13.542Z,97408.60
2023-11-29T02:54:02.133Z,97414.45
2023-11-29T02:56:49.184Z,97414.94
2023-11-29T02:59:36.417Z,97415.16
2023-11-29T03:02:23.155Z,97410.10
2023-11-29T03:05:10.764Z,97413.02
2023-11-29T03:07:57.563Z,97409.59
2023-11-29T03:10:45.145Z,97413.34
2023-11-29T03:13:32.180Z,97414.86
2023-11-29T03:16:19.044Z,97415.27
2023-11-29T03:19:05.899Z,97420.48
2023-11-29T03:21:53.316Z,97422.02
2023-11-29T03:24:43.230Z,97429.36
2023-11-29T03:27:30.433Z,97431.12
2023-11-29T03:30:21.578Z,97432.58
2023-11-29T03:33:08.893Z,97428.60
2023-11-29T03:35:57.573Z,97430.39
2023-11-29T03:38:45.022Z,97433.33
2023-11-29T03:41:33.435Z,97439.11
2023-11-29T03:44:20.691Z,97441.32
2023-11-29T03:47:07.904Z,97446.39
2023-11-29T03:49:56.393Z,97446.87
2023-11-29T03:52:44.378Z,97449.02
2023-11-29T03:55:31.766Z,97441.78
2023-11-29T03:58:18.756Z,97441.71
2023-11-29T04:01:05.864Z,97440.30
2023-11-29T04:03:52.983Z,97444.52
2023-11-29T04:06:40.240Z,97439.64
2023-11-29T04:09:27.122Z,97439.20
2023-11-29T04:12:14.084Z,97438.80
2023-11-29T04:15:00.971Z,97438.48
2023-11-29T04:17:47.865Z,97445.34
2023-11-29T04:20:40.258Z,97448.84
2023-11-29T04:23:27.129Z,97451.20
2023-11-29T04:26:39.786Z,97457.55
2023-11-29T04:29:26.966Z,97463.73
2023-11-29T04:32:16.018Z,97467.60
2023-11-29T04:35:10.630Z,97470.00
2023-11-29T04:37:57.506Z,97473.88
2023-11-29T04:40:44.877Z,97476.43
2023-11-29T04:43:31.970Z,97478.05
2023-11-29T04:46:19.170Z,97485.83
2023-11-29T04:49:06.645Z,97487.43
2023-11-29T04:51:53.637Z,97484.20
2023-11-29T04:54:40.217Z,97486.73
2023-11-29T04:57:27.303Z,97488.78
2023-11-29T05:00:15.203Z,97490.34
2023-11-29T05:03:02.424Z,97486.88
2023-11-29T05:05:49.773Z,97490.44
2023-11-29T05:08:37.231Z,97493.45
2023-11-29T05:11:24.862Z,97497.23
2023-11-29T05:14:13.298Z,97499.33
2023-11-29T05:17:00.657Z,97498.41
2023-11-29T05:19:47.605Z,97497.66
2023-11-29T05:22:35.611Z,97499.16
2023-11-29T05:25:22.613Z,97500.56
2023-11-29T05:28:09.569Z,97495.64
2023-11-29T05:30:56.529Z,97496.81
2023-11-29T05:33:45.750Z,97496.81
2023-11-29T05:36:32.432Z,97504.89
2023-11-29T05:39:21.222Z,97512.80
2023-11-29T05:42:09.680Z,97512.27
2023-11-29T05:44:57.347Z,97510.03
2023-11-29T05:47:44.924Z,97513.52
2023-11-29T05:50:32.345Z,97513.48
2023-11-29T05:53:22.733Z,97519.80
2023-11-29T05:56:10.768Z,97517.80
2023-11-29T05:58:57.839Z,97514.53
2023-11-29T06:01:46.090Z,97514.73
2023-11-29T06:04:33.491Z,97517.11
2023-11-29T06:07:20.716Z,97521.92
2023-11-29T06:10:08.707Z,97528.08
2023-11-29T06:12:55.885Z,97531.08
2023-11-29T06:15:44.493Z,97535.95
2023-11-29T06:18:31.370Z,97544.27
2023-11-29T06:21:19.572Z,97557.15
2023-11-29T06:24:07.194Z,97564.65
2023-11-29T06:26:54.388Z,97563.66
2023-11-29T06:29:41.440Z,97565.05
2023-11-29T06:32:28.227Z,97568.67
2023-11-29T06:35:16.666Z,97572.73
2023-11-29T06:38:08.105Z,97570.30
2023-11-29T06:40:59.708Z,97569.45
2023-11-29T06:43:49.092Z,97572.80
2023-11-29T06:46:36.140Z,97572.85
2023-11-29T06:49:23.058Z,97579.70
2023-11-29T06:52:10.174Z,97581.77
2023-11-29T06:54:57.033Z,97576.48
2023-11-29T06:57:47.634Z,97578.40
2023-11-29T07:00:34.565Z,97584.48
2023-11-29T07:03:21.539Z,97590.94
2023-11-29T07:06:09.368Z,97593.39
2023-11-29T07:08:55.895Z,97593.73
2023-11-29T07:11:45.333Z,97595.83
2023-11-29T07:14:32.600Z,97593.94
2023-11-29T07:17:19.625Z,97593.17
2023-11-29T07:20:08.314Z,97602.07
2023-11-29T07:22:55.608Z,97604.40
2023-11-29T07:25:42.702Z,97602.91
2023-11-29T07:28:29.623Z,97608.55
2023-11-29T07:31:16.318Z,97611.27
2023-11-29T07:34:03.992Z,97616.68
2023-11-29T07:36:53.167Z,97612.51
2023-11-29T07:39:40.281Z,97612.55
2023-11-29T07:42:27.330Z,97613.33
2023-11-29T07:45:15.323Z,97618.95
2023-11-29T07:48:02.843Z,97619.92
2023-11-29T07:50:51.759Z,97618.04
2023-11-29T07:53:39.125Z,97618.22
2023-11-29T07:56:25.791Z,97619.84
2023-11-29T07:59:13.960Z,97622.14
2023-11-29T08:02:00.477Z,97622.92
2023-11-29T08:04:47.396Z,97620.64
2023-11-29T08:07:34.617Z,97618.64
2023-11-29T08:10:23.247Z,97616.71
2023-11-29T08:13:10.405Z,97615.24
2023-11-29T08:15:58.193Z,97618.73
2023-11-29T08:18:46.601Z,97619.76
2023-11-29T08:21:34.263Z,97628.16
2023-11-29T08:24:21.381Z,97621.11
2023-11-29T08:27:08.699Z,97623.98
2023-11-29T08:29:55.842Z,97623.47
2023-11-29T08:32:43.032Z,97622.52
2023-11-29T08:35:29.825Z,97617.27
2023-11-29T08:38:17.525Z,97624.40
2023-11-29T08:41:04.465Z,97627.86
2023-11-29T08:43:51.459Z,97627.65
2023-11-29T08:46:38.362Z,97628.77
2023-11-29T08:49:25.850Z,97629.42
2023-11-29T08:52:12.835Z,97629.29
2023-11-29T08:55:00.405Z,97629.13
2023-11-29T08:57:47.493Z,97630.88
2023-11-29T09:00:35.212Z,97638.76
2023-11-29T09:03:23.156Z,97635.76
2023-11-29T09:06:10.489Z,97645.62
2023-11-29T09:08:57.688Z,97640.92
2023-11-29T09:11:45.875Z,97642.38
2023-11-29T09:14:32.886Z,97647.71
2023-11-29T09:17:21.818Z,97647.41
2023-11-29T09:20:09.338Z,97648.02
2023-11-29T09:22:56.630Z,97642.56
2023-11-29T09:25:43.575Z,97636.69
2023-11-29T09:28:30.752Z,97637.59
2023-11-29T09:31:18.038Z,97637.18
2023-11-29T09:34:05.531Z,97636.37
2023-11-29T09:36:55.156Z,97630.83
2023-11-29T09:39:42.278Z,97633.46
2023-11-29T09:42:29.781Z,97629.35
2023-11-29T09:45:23.528Z,97633.97
2023-11-29T09:48:11.860Z,97630.16
2023-11-29T09:50:59.109Z,97632.44
2023-11-29T09:53:46.511Z,97621.84
2023-11-29T09:56:34.126Z,97625.52
2023-11-29T09:59:23.322Z,97625.23
2023-11-29T10:02:13.278Z,97627.20
2023-11-29T10:05:03.268Z,97626.77
2023-11-29T10:07:50.915Z,97621.89
2023-11-29T10:10:38.479Z,97623.05
2023-11-29T10:13:25.509Z,97620.57
2023-11-29T10:16:12.395Z,97623.02
2023-11-29T10:19:03.156Z,97619.70
2023-11-29T10:21:53.317Z,97623.84
2023-11-29T10:24:40.504Z,97622.05
2023-11-29T10:27:27.663Z,97623.48
2023-11-29T10:30:17.685Z,97621.64
2023-11-29T10:33:08.320Z,97619.80
2023-11-29T10:35:55.686Z,97612.48
2023-11-29T10:38:55.815Z,97613.41
2023-11-29T10:41:56.150Z,97612.42
2023-11-29T10:44:45.226Z,97610.08
2023-11-29T10:47:36.478Z,97614.85
2023-11-29T10:50:24.851Z,97617.91
2023-11-29T10:53:11.480Z,97612.41
2023-11-29T10:55:58.466Z,97615.69
2023-11-29T10:58:50.367Z,97618.42
2023-11-29T11:01:40.092Z,97617.53
2023-11-29T11:04:37.740Z,97617.07
2023-11-29T11:07:39.490Z,97614.70
2023-11-29T11:10:27.922Z,97608.55
2023-11-29T11:13:36.486Z,97602.78
2023-11-29T11:16:23.489Z,97597.25
2023-11-29T11:19:10.278Z,97588.47
2023-11-29T11:21:57.844Z,97586.75
2023-11-29T11:25:04.743Z,97587.72
2023-11-29T11:27:52.079Z,97587.25
2023-11-29T11:30:54.678Z,97587.51
2023-11-29T11:33:54.437Z,97588.83
2023-11-29T11:36:42.676Z,97590.50
2023-11-29T11:39:30.044Z,97589.71
2023-11-29T11:42:16.869Z,97587.83
2023-11-29T11:45:04.481Z,97591.73
2023-11-29T11:47:52.138Z,97592.48
2023-11-29T11:50:39.369Z,97590.02
2023-11-29T11:53:26.461Z,97586.02
2023-11-29T11:56:23.426Z,97584.27
2023-11-29T11:59:10.428Z,97579.05
2023-11-29T12:01:57.436Z,97581.12
2023-11-29T12:04:44.436Z,97580.52
2023-11-29T12:07:32.239Z,97586.23
2023-11-29T12:10:19.111Z,97583.02
2023-11-29T12:13:08.120Z,97580.23
2023-11-29T12:15:57.286Z,97579.02
2023-11-29T12:18:44.894Z,97574.52
2023-11-29T12:21:32.179Z,97570.55
2023-11-29T12:24:19.262Z,97570.16
2023-11-29T12:27:10.451Z,97566.88
2023-11-29T12:30:01.161Z,97567.59
2023-11-29T12:32:48.104Z,97568.14
2023-11-29T12:35:42.579Z,97564.36
2023-11-29T12:38:29.782Z,97566.48
2023-11-29T12:41:16.458Z,97563.70
2023-11-29T12:44:04.608Z,97562.23
2023-11-29T12:46:51.624Z,97557.50
2023-11-29T12:49:38.632Z,97552.73
2023-11-29T12:52:26.712Z,97551.61
2023-11-29T12:55:14.166Z,97553.11
2023-11-29T12:58:01.099Z,97552.48
2023-11-29T13:00:48.141Z,97552.67
2023-11-29T13:03:36.371Z,97557.24
2023-11-29T13:06:24.644Z,97555.23
2023-11-29T13:09:11.361Z,97553.85
2023-11-29T13:11:59.435Z,97553.85
2023-11-29T13:14:46.409Z,97551.36
2023-11-29T13:17:33.433Z,97553.39
2023-11-29T13:20:20.317Z,97556.71
2023-11-29T13:23:09.745Z,97553.84
2023-11-29T13:25:56.434Z,97555.56
2023-11-29T13:28:43.112Z,97557.92
2023-11-29T13:31:30.443Z,97556.89
2023-11-29T13:34:18.466Z,97562.27
2023-11-29T13:37:05.576Z,97559.00
2023-11-29T13:39:52.465Z,97558.66
2023-11-29T13:42:39.572Z,97563.56
2023-11-29T13:45:26.584Z,97563.91
2023-11-29T13:48:13.496Z,97562.55
2023-11-29T13:51:01.628Z,97567.25
2023-11-29T13:53:48.604Z,97568.52
2023-11-29T13:56:38.765Z,97569.21
2023-11-29T13:59:25.595Z,97574.31
2023-11-29T14:02:18.183Z,97577.73
2023-11-29T14:05:06.431Z,97581.23
2023-11-29T14:07:53.468Z,97582.09
2023-11-29T14:10:40.344Z,97581.34
2023-11-29T14:13:30.112Z,97583.48
2023-11-29T14:16:17.361Z,97586.87
2023-11-29T14:19:05.428Z,97585.61
2023-11-29T14:21:52.201Z,97588.67
2023-11-29T14:24:40.902Z,97588.66
2023-11-29T14:27:30.035Z,97586.86
2023-11-29T14:30:21.146Z,97581.77
2023-11-29T14:33:08.436Z,97582.95
2023-11-29T14:35:55.713Z,97585.17
2023-11-29T14:38:42.637Z,97588.73
2023-11-29T14:41:30.792Z,97584.92
2023-11-29T14:44:18.422Z,97584.00
2023-11-29T14:47:07.104Z,97591.14
2023-11-29T14:49:54.342Z,97594.16
2023-11-29T14:52:43.711Z,97598.27
2023-11-29T14:55:30.983Z,97598.15
2023-11-29T14:58:17.972Z,97598.56
2023-11-29T15:01:05.494Z,97603.53
2023-11-29T15:03:52.186Z,97600.34
2023-11-29T15:06:39.227Z,97604.90
2023-11-29T15:09:26.053Z,97599.17
2023-11-29T15:12:13.444Z,97596.00
2023-11-29T15:15:01.095Z,97592.67
2023-11-29T15:17:48.297Z,97592.30
2023-11-29T15:20:35.280Z,97594.08
2023-11-29T15:23:25.162Z,97591.95
2023-11-29T15:26:12.044Z,97593.33
2023-11-29T15:28:58.824Z,97589.54
2023-11-29T15:31:45.673Z,97588.71
2023-11-29T15:34:32.927Z,97590.82
2023-11-29T15:37:20.325Z,97593.09
2023-11-29T15:40:07.893Z,97591.44
2023-11-29T15:42:55.160Z,97590.90
2023-11-29T15:45:42.055Z,97586.70
2023-11-29T15:48:31.195Z,97590.67
2023-11-29T15:51:18.136Z,97590.91
2023-11-29T15:54:05.087Z,97591.18
2023-11-29T15:56:51.642Z,97588.94
2023-11-29T15:59:38.950Z,97592.33
2023-11-29T16:02:25.967Z,97591.09
2023-11-29T16:05:13.267Z,97592.66
2023-11-29T16:08:00.234Z,97593.88
2023-11-29T16:10:47.238Z,97593.46
2023-11-29T16:13:34.458Z,97594.67
2023-11-29T16:16:21.671Z,97594.45
2023-11-29T16:19:11.196Z,97597.53
2023-11-29T16:21:58.024Z,97592.46
2023-11-29T16:24:45.666Z,97596.95
2023-11-29T16:27:37.213Z,97599.69
2023-11-29T16:30:25.223Z,97602.42
2023-11-29T16:33:12.342Z,97601.71
2023-11-29T16:36:00.075Z,97600.83
2023-11-29T16:38:47.230Z,97599.18
2023-11-29T16:41:35.134Z,97599.42
2023-11-29T16:44:21.950Z,97599.93
2023-11-29T16:47:08.925Z,97597.16
2023-11-29T16:49:56.101Z,97594.26
2023-11-29T16:52:44.804Z,97587.31
2023-11-29T16:55:32.355Z,97584.02
2023-11-29T16:58:19.402Z,97582.21
2023-11-29T17:01:06.740Z,97584.72
2023-11-29T17:03:54.868Z,97582.14
2023-11-29T17:06:42.684Z,97575.77
2023-11-29T17:09:29.833Z,97571.41
2023-11-29T17:12:16.398Z,97574.23
2023-11-29T17:15:04.128Z,97578.49
2023-11-29T17:17:51.596Z,97581.63
2023-11-29T17:20:38.749Z,97582.89
2023-11-29T17:23:25.752Z,97587.27
2023-11-29T17:26:14.734Z,97592.25
2023-11-29T17:29:02.198Z,97590.98
2023-11-29T17:31:48.979Z,97588.60
2023-11-29T17:34:35.971Z,97591.48
2023-11-29T17:37:22.881Z,97591.69
2023-11-29T17:40:12.324Z,97590.80
2023-11-29T17:42:59.435Z,97593.53
2023-11-29T17:45:51.745Z,97590.55
2023-11-29T17:48:39.605Z,97592.73
2023-11-29T17:51:26.712Z,97594.92
2023-11-29T17:54:14.670Z,97590.54
2023-11-29T17:57:01.864Z,97586.52
2023-11-29T17:59:48.706Z,97590.69
2023-11-29T18:02:35.520Z,97587.28
2023-11-29T18:05:22.626Z,97580.23
2023-11-29T18:08:09.920Z,97576.48
2023-11-29T18:10:57.130Z,97574.45
2023-11-29T18:13:43.907Z,97564.86
2023-11-29T18:16:31.588Z,97566.41
2023-11-29T18:19:18.377Z,97569.26
2023-11-29T18:22:05.577Z,97575.90
2023-11-29T18:24:52.857Z,97573.55
2023-11-29T18:27:39.674Z,97570.62
2023-11-29T18:30:28.235Z,97574.45
2023-11-29T18:33:14.985Z,97570.42
2023-11-29T18:36:02.090Z,97569.91
2023-11-29T18:38:50.711Z,97570.33
2023-11-29T18:41:38.117Z,97569.42
2023-11-29T18:44:45.774Z,97566.58
2023-11-29T18:47:32.835Z,97564.21
2023-11-29T18:50:20.108Z,97567.82
2023-11-29T18:53:07.508Z,97566.40
2023-11-29T18:55:54.580Z,97566.10
2023-11-29T18:58:44.162Z,97571.27
2023-11-29T19:01:33.962Z,97566.70
2023-11-29T19:04:23.947Z,97570.09
2023-11-29T19:07:11.057Z,97571.29
2023-11-29T19:09:57.951Z,97568.71
2023-11-29T19:12:45.226Z,97563.92
2023-11-29T19:15:31.911Z,97564.90
2023-11-29T19:18:19.885Z,97566.77
2023-11-29T19:21:10.119Z,97566.69
2023-11-29T19:23:58.954Z,97564.05
2023-11-29T19:26:47.096Z,97557.55
2023-11-29T19:29:34.782Z,97555.85
2023-11-29T19:32:25.095Z,97553.73
2023-11-29T19:35:22.113Z,97556.74
2023-11-29T19:38:13.581Z,97551.97
2023-11-29T19:41:00.436Z,97557.67
2023-11-29T19:43:48.281Z,97554.87
2023-11-29T19:46:35.482Z,97560.15
2023-11-29T19:49:22.437Z,97558.67
2023-11-29T19:52:09.758Z,97565.75
2023-11-29T19:54:57.611Z,97570.41
2023-11-29T19:57:44.199Z,97571.47
2023-11-29T20:00:33.579Z,97569.48
2023-11-29T20:03:26.101Z,97568.43
2023-11-29T20:06:22.088Z,97569.73
2023-11-29T20:09:16.912Z,97567.38
2023-11-29T20:12:04.859Z,97571.27
2023-11-29T20:14:57.712Z,97570.39
2023-11-29T20:17:46.231Z,97575.16
2023-11-29T20:20:46.035Z,97576.84
2023-11-29T20:23:40.418Z,97573.17
2023-11-29T20:26:27.648Z,97572.99
2023-11-29T20:29:14.700Z,97570.25
2023-11-29T20:32:01.610Z,97567.31
2023-11-29T20:35:00.630Z,97564.84
2023-11-29T20:37:56.785Z,97565.59
2023-11-29T20:40:47.933Z,97561.06
2023-11-29T20:43:36.047Z,97558.64
2023-11-29T20:46:24.277Z,97558.88
2023-11-29T20:49:11.503Z,97560.13
2023-11-29T20:51:58.223Z,97559.50
2023-11-29T20:54:44.994Z,97562.88
2023-11-29T20:57:31.915Z,97566.48
2023-11-29T21:00:19.748Z,97564.75
2023-11-29T21:03:07.111Z,97561.07
2023-11-29T21:05:54.373Z,97558.73
2023-11-29T21:08:41.529Z,97559.43
2023-11-29T21:11:29.672Z,97557.95
2023-11-29T21:14:16.614Z,97556.10
2023-11-29T21:17:06.102Z,97550.26
2023-11-29T21:19:52.858Z,97553.39
2023-11-29T21:22:43.816Z,97555.11
2023-11-29T21:25:32.009Z,97554.66
2023-11-29T21:28:18.999Z,97552.17
2023-11-29T21:31:06.778Z,97544.73
2023-11-29T21:33:57.190Z,97541.69
2023-11-29T21:36:44.240Z,97540.91
2023-11-29T21:39:31.123Z,97536.94
2023-11-29T21:42:18.983Z,97539.62
2023-11-29T21:45:06.718Z,97536.88
2023-11-29T21:47:53.579Z,97535.85
2023-11-29T21:50:40.474Z,97528.33
2023-11-29T21:53:27.459Z,97528.77
2023-11-29T21:56:14.268Z,97525.64
2023-11-29T21:59:02.280Z,97519.10
2023-11-29T22:01:55.881Z,97517.73
2023-11-29T22:04:44.263Z,97520.70
2023-11-29T22:07:31.422Z,97522.17
2023-11-29T22:10:18.722Z,97523.38
2023-11-29T22:13:05.327Z,97523.93
2023-11-29T22:15:52.701Z,97527.77
2023-11-29T22:18:39.533Z,97528.79
2023-11-29T22:21:29.551Z,97528.92
2023-11-29T22:24:16.366Z,97529.93
2023-11-29T22:27:04.297Z,97534.36
2023-11-29T22:29:51.089Z,97531.11
2023-11-29T22:32:38.159Z,97534.53
2023-11-29T22:35:25.390Z,97529.50
2023-11-29T22:38:12.576Z,97532.45
2023-11-29T22:40:59.557Z,97532.91
2023-11-29T22:43:46.646Z,97531.06
2023-11-29T22:46:33.575Z,97532.02
2023-11-29T22:49:21.516Z,97538.14
2023-11-29T22:52:08.367Z,97541.16
2023-11-29T22:54:56.151Z,97538.13
2023-11-29T22:57:43.385Z,97530.92
2023-11-29T23:00:30.347Z,97528.80
2023-11-29T23:03:17.282Z,97526.95
2023-11-29T23:06:04.682Z,97524.36
2023-11-29T23:08:51.464Z,97520.09
2023-11-29T23:11:38.710Z,97519.50
2023-11-29T23:14:25.593Z,97515.20
2023-11-29T23:17:12.312Z,97512.89
2023-11-29T23:19:59.372Z,97515.24
2023-11-29T23:22:46.484Z,97520.76
2023-11-29T23:25:33.421Z,97517.60
2023-11-29T23:28:20.224Z,97514.74
2023-11-29T23:31:08.795Z,97511.40
2023-11-29T23:33:56.396Z,97511.36
2023-11-29T23:36:44.578Z,97512.84
2023-11-29T23:39:31.480Z,97510.13
2023-11-29T23:42:19.072Z,97509.48
2023-11-29T23:45:06.573Z,97506.55
2023-11-29T23:47:53.471Z,97506.42
2023-11-29T23:50:40.248Z,97504.19
2023-11-29T23:53:27.307Z,97505.96
2023-11-29T23:56:14.085Z,97503.42
2023-11-29T23:59:00.863Z,97502.31
